createdAt,value
2019-06-08T00:01:57.571Z,73.80
2019-06-08T00:04:25.575Z,73.40
2019-06-08T00:06:52.757Z,73.40
2019-06-08T00:09:20.848Z,74.00
2019-06-08T00:11:49.611Z,73.80
2019-06-08T00:14:17.440Z,73.70
2019-06-08T00:16:45.556Z,73.80
2019-06-08T00:19:13.236Z,73.30
2019-06-08T00:21:41.143Z,72.90
2019-06-08T00:24:08.236Z,72.90
2019-06-08T00:26:35.263Z,73.20
2019-06-08T00:29:02.643Z,72.80
2019-06-08T00:31:29.499Z,73.70
2019-06-08T00:33:56.665Z,73.10
2019-06-08T00:36:25.039Z,72.10
2019-06-08T00:38:52.737Z,72.00
2019-06-08T00:41:21.955Z,71.90
2019-06-08T00:43:49.660Z,72.50
2019-06-08T00:46:17.236Z,72.10
2019-06-08T00:48:44.746Z,71.30
2019-06-08T00:51:11.945Z,72.00
2019-06-08T00:53:38.991Z,71.50
2019-06-08T00:56:06.658Z,71.70
2019-06-08T00:58:35.154Z,71.10
2019-06-08T01:01:03.081Z,70.70
2019-06-08T01:03:31.237Z,71.10
2019-06-08T01:05:58.724Z,70.70
2019-06-08T01:08:27.385Z,71.00
2019-06-08T01:10:55.031Z,70.50
2019-06-08T01:13:22.961Z,70.60
2019-06-08T01:15:50.171Z,71.90
2019-06-08T01:18:17.454Z,70.30
2019-06-08T01:20:45.037Z,70.80
2019-06-08T01:23:12.546Z,70.50
2019-06-08T01:25:40.136Z,70.70
2019-06-08T01:28:07.058Z,70.90
2019-06-08T01:30:35.337Z,70.50
2019-06-08T01:33:03.488Z,70.40
2019-06-08T01:35:30.959Z,71.00
2019-06-08T01:37:58.017Z,70.80
2019-06-08T01:40:25.530Z,70.80
2019-06-08T01:42:53.478Z,70.50
2019-06-08T01:45:30.136Z,71.00
2019-06-08T01:47:58.438Z,71.20
2019-06-08T01:50:26.436Z,70.30
2019-06-08T01:52:54.062Z,70.40
2019-06-08T01:55:22.966Z,70.50
2019-06-08T01:57:50.699Z,71.10
2019-06-08T02:00:29.874Z,71.00
2019-06-08T02:02:48.723Z,70.80
2019-06-08T02:05:16.400Z,70.50
2019-06-08T02:07:43.680Z,70.10
2019-06-08T02:10:11.596Z,71.30
2019-06-08T02:12:39.006Z,70.70
2019-06-08T02:15:06.661Z,71.10
2019-06-08T02:17:34.033Z,71.10
2019-06-08T02:20:04.359Z,71.10
2019-06-08T02:22:31.356Z,71.10
2019-06-08T02:24:58.223Z,71.40
2019-06-08T02:27:27.229Z,71.20
2019-06-08T02:29:54.619Z,71.80
2019-06-08T02:32:22.099Z,72.00
2019-06-08T02:34:49.264Z,72.60
2019-06-08T02:37:17.426Z,72.00
2019-06-08T02:39:44.259Z,71.20
2019-06-08T02:42:12.484Z,71.90
2019-06-08T02:44:40.583Z,72.40
2019-06-08T02:47:08.864Z,71.70
2019-06-08T02:49:37.606Z,70.90
2019-06-08T02:52:06.927Z,70.40
2019-06-08T02:54:35.500Z,69.90
2019-06-08T02:57:03.699Z,69.80
2019-06-08T02:59:35.658Z,69.70
2019-06-08T03:02:03.610Z,69.10
2019-06-08T03:04:36.514Z,68.70
2019-06-08T03:07:04.253Z,67.30
2019-06-08T03:09:34.654Z,66.30
2019-06-08T03:12:02.208Z,66.80
2019-06-08T03:14:31.155Z,66.80
2019-06-08T03:16:58.907Z,66.90
2019-06-08T03:19:27.063Z,66.20
2019-06-08T03:21:54.011Z,65.90
2019-06-08T03:24:21.422Z,65.10
2019-06-08T03:26:49.317Z,65.00
2019-06-08T03:29:17.463Z,64.60
2019-06-08T03:31:54.282Z,65.40
2019-06-08T03:34:14.109Z,65.50
2019-06-08T03:36:52.858Z,64.50
2019-06-08T03:39:11.285Z,65.50
2019-06-08T03:41:38.914Z,64.50
2019-06-08T03:44:07.172Z,65.20
2019-06-08T03:46:34.574Z,65.70
2019-06-08T03:49:01.592Z,65.20
2019-06-08T03:51:28.980Z,65.50
2019-06-08T03:53:55.924Z,65.80
2019-06-08T03:56:23.710Z,65.50
2019-06-08T03:58:50.539Z,65.60
2019-06-08T04:01:17.882Z,67.90
2019-06-08T04:03:46.252Z,66.10
2019-06-08T04:06:13.482Z,66.00
2019-06-08T04:08:42.331Z,65.70
2019-06-08T04:11:09.943Z,68.00
2019-06-08T04:13:37.736Z,65.20
2019-06-08T04:16:05.370Z,65.80
2019-06-08T04:18:32.721Z,64.60
2019-06-08T04:21:00.204Z,64.00
2019-06-08T04:23:29.260Z,64.10
2019-06-08T04:25:57.001Z,64.40
2019-06-08T04:28:24.464Z,64.40
2019-06-08T04:30:52.821Z,64.10
2019-06-08T04:33:21.604Z,65.40
2019-06-08T04:35:50.777Z,64.70
2019-06-08T04:38:17.809Z,65.90
2019-06-08T04:40:45.963Z,65.70
2019-06-08T04:43:13.909Z,66.20
2019-06-08T04:45:43.015Z,66.20
2019-06-08T04:48:10.183Z,64.10
2019-06-08T04:50:38.717Z,64.50
2019-06-08T04:53:06.857Z,63.10
2019-06-08T04:55:35.620Z,64.20
2019-06-08T04:58:02.695Z,64.10
2019-06-08T05:00:31.369Z,62.90
2019-06-08T05:02:58.510Z,63.30
2019-06-08T05:05:26.048Z,62.50
2019-06-08T05:07:53.956Z,62.90
2019-06-08T05:10:21.536Z,63.50
2019-06-08T05:12:50.240Z,62.80
2019-06-08T05:15:17.460Z,61.80
2019-06-08T05:17:45.430Z,62.20
2019-06-08T05:20:12.879Z,61.30
2019-06-08T05:22:41.447Z,62.00
2019-06-08T05:25:09.481Z,62.10
2019-06-08T05:27:37.147Z,61.30
2019-06-08T05:30:08.780Z,63.50
2019-06-08T05:32:35.191Z,60.40
2019-06-08T05:35:02.846Z,62.50
2019-06-08T05:37:30.299Z,59.70
2019-06-08T05:39:57.556Z,62.50
2019-06-08T05:42:24.915Z,60.30
2019-06-08T05:44:53.109Z,61.20
2019-06-08T05:47:20.308Z,61.20
2019-06-08T05:49:47.985Z,62.70
2019-06-08T05:52:16.350Z,61.20
2019-06-08T05:54:43.826Z,60.70
2019-06-08T05:57:11.512Z,61.20
2019-06-08T05:59:38.373Z,61.40
2019-06-08T06:02:06.142Z,63.20
2019-06-08T06:04:33.712Z,61.10
2019-06-08T06:07:02.044Z,61.30
2019-06-08T06:09:29.432Z,60.60
2019-06-08T06:11:57.296Z,59.00
2019-06-08T06:14:24.978Z,59.50
2019-06-08T06:16:52.935Z,61.90
2019-06-08T06:19:20.204Z,59.00
2019-06-08T06:21:49.210Z,59.20
2019-06-08T06:24:18.407Z,59.30
2019-06-08T06:26:45.396Z,60.80
2019-06-08T06:29:13.052Z,60.30
2019-06-08T06:31:41.746Z,59.70
2019-06-08T06:34:08.908Z,59.90
2019-06-08T06:36:35.996Z,61.30
2019-06-08T06:39:04.895Z,60.70
2019-06-08T06:41:33.272Z,59.50
2019-06-08T06:44:00.761Z,58.60
2019-06-08T06:46:28.976Z,60.10
2019-06-08T06:48:56.493Z,58.70
2019-06-08T06:51:26.674Z,58.70
2019-06-08T06:53:53.361Z,60.40
2019-06-08T06:56:20.473Z,60.20
2019-06-08T06:58:47.748Z,58.80
2019-06-08T07:01:15.151Z,60.00
2019-06-08T07:03:42.259Z,60.30
2019-06-08T07:06:10.228Z,61.80
2019-06-08T07:08:37.076Z,60.20
2019-06-08T07:11:04.199Z,61.60
2019-06-08T07:13:31.699Z,59.60
2019-06-08T07:15:58.649Z,60.00
2019-06-08T07:18:26.500Z,62.70
2019-06-08T07:20:54.418Z,60.60
2019-06-08T07:23:22.667Z,60.70
2019-06-08T07:25:50.464Z,60.10
2019-06-08T07:28:17.744Z,60.80
2019-06-08T07:30:47.260Z,60.00
2019-06-08T07:33:14.943Z,59.70
2019-06-08T07:35:42.399Z,61.90
2019-06-08T07:38:09.478Z,61.90
2019-06-08T07:40:37.256Z,60.00
2019-06-08T07:43:04.752Z,61.60
2019-06-08T07:45:32.312Z,60.40
2019-06-08T07:48:00.617Z,60.50
2019-06-08T07:50:28.487Z,60.30
2019-06-08T07:52:56.637Z,59.50
2019-06-08T07:55:24.460Z,60.90
2019-06-08T07:57:52.278Z,61.50
2019-06-08T08:00:20.208Z,63.70
2019-06-08T08:02:48.304Z,63.30
2019-06-08T08:05:15.355Z,60.10
2019-06-08T08:07:42.733Z,62.50
2019-06-08T08:10:10.455Z,63.20
2019-06-08T08:12:37.919Z,59.50
2019-06-08T08:15:05.379Z,62.00
2019-06-08T08:17:34.589Z,61.90
2019-06-08T08:20:02.100Z,61.00
2019-06-08T08:22:29.865Z,61.90
2019-06-08T08:25:02.760Z,60.60
2019-06-08T08:27:28.072Z,59.10
2019-06-08T08:29:59.969Z,61.30
2019-06-08T08:32:28.320Z,59.40
2019-06-08T08:34:58.400Z,60.20
2019-06-08T08:37:24.860Z,59.20
2019-06-08T08:39:54.079Z,59.40
2019-06-08T08:42:22.043Z,58.50
2019-06-08T08:44:51.026Z,60.00
2019-06-08T08:47:19.055Z,60.30
2019-06-08T08:49:47.924Z,61.00
2019-06-08T08:52:17.537Z,58.20
2019-06-08T08:54:44.385Z,59.90
2019-06-08T08:57:11.924Z,58.90
2019-06-08T08:59:38.889Z,58.40
2019-06-08T09:02:10.980Z,59.30
2019-06-08T09:04:38.022Z,61.20
2019-06-08T09:07:07.758Z,60.20
2019-06-08T09:09:34.020Z,60.70
2019-06-08T09:12:04.320Z,60.70
2019-06-08T09:14:34.853Z,59.40
2019-06-08T09:17:03.423Z,60.70
2019-06-08T09:19:31.524Z,62.10
2019-06-08T09:22:01.189Z,59.50
2019-06-08T09:24:28.615Z,60.50
2019-06-08T09:27:00.862Z,63.00
2019-06-08T09:29:28.761Z,62.30
2019-06-08T09:31:56.013Z,59.80
2019-06-08T09:34:24.504Z,57.90
2019-06-08T09:36:52.782Z,59.90
2019-06-08T09:39:21.596Z,63.80
2019-06-08T09:41:49.261Z,60.10
2019-06-08T09:44:18.484Z,60.70
2019-06-08T09:46:48.108Z,64.10
2019-06-08T09:49:15.413Z,62.00
2019-06-08T09:51:42.383Z,62.60
2019-06-08T09:54:12.855Z,59.80
2019-06-08T09:56:39.601Z,59.30
2019-06-08T09:59:10.673Z,60.50
2019-06-08T10:01:38.399Z,59.40
2019-06-08T10:04:09.214Z,61.70
2019-06-08T10:06:37.770Z,61.80
2019-06-08T10:09:08.838Z,60.20
2019-06-08T10:11:37.823Z,59.20
2019-06-08T10:14:08.729Z,60.80
2019-06-08T10:16:33.878Z,60.90
2019-06-08T10:19:04.754Z,58.90
2019-06-08T10:21:31.025Z,60.10
2019-06-08T10:24:01.006Z,58.00
2019-06-08T10:26:28.077Z,59.30
2019-06-08T10:28:55.350Z,58.80
2019-06-08T10:31:35.624Z,58.50
2019-06-08T10:33:51.837Z,58.30
2019-06-08T10:36:19.285Z,57.90
2019-06-08T10:38:48.242Z,58.00
2019-06-08T10:41:21.089Z,58.20
2019-06-08T10:43:48.226Z,59.10
2019-06-08T10:46:19.865Z,59.30
2019-06-08T10:48:48.441Z,58.00
2019-06-08T10:51:14.601Z,58.30
2019-06-08T10:53:48.478Z,57.60
2019-06-08T10:56:13.468Z,57.10
2019-06-08T10:58:41.304Z,56.50
2019-06-08T11:01:12.172Z,55.90
2019-06-08T11:03:39.097Z,57.60
2019-06-08T11:06:11.398Z,58.40
2019-06-08T11:08:35.624Z,60.70
2019-06-08T11:11:02.997Z,59.60
2019-06-08T11:13:31.612Z,56.80
2019-06-08T11:16:01.024Z,60.10
2019-06-08T11:18:28.758Z,58.60
2019-06-08T11:20:57.957Z,57.70
2019-06-08T11:23:25.476Z,57.60
2019-06-08T11:25:53.131Z,58.30
2019-06-08T11:28:20.429Z,58.50
2019-06-08T11:30:48.588Z,58.80
2019-06-08T11:33:16.088Z,58.30
2019-06-08T11:35:43.930Z,59.00
2019-06-08T11:38:12.613Z,58.60
2019-06-08T11:40:40.368Z,57.50
2019-06-08T11:43:08.632Z,57.60
2019-06-08T11:45:37.984Z,57.70
2019-06-08T11:48:06.468Z,58.40
2019-06-08T11:50:41.571Z,58.20
2019-06-08T11:53:07.785Z,58.60
2019-06-08T11:55:38.349Z,59.10
2019-06-08T11:58:05.093Z,58.50
2019-06-08T12:00:53.414Z,59.00
2019-06-08T12:03:21.032Z,58.20
2019-06-08T12:05:50.915Z,58.10
2019-06-08T12:08:20.922Z,56.40
2019-06-08T12:10:49.539Z,56.20
2019-06-08T12:13:17.830Z,56.70
2019-06-08T12:15:45.632Z,57.60
2019-06-08T12:18:14.168Z,57.90
2019-06-08T12:20:41.559Z,56.80
2019-06-08T12:23:09.999Z,57.20
2019-06-08T12:25:37.873Z,57.70
2019-06-08T12:28:06.361Z,57.90
2019-06-08T12:30:33.674Z,57.20
2019-06-08T12:33:00.731Z,57.50
2019-06-08T12:35:28.415Z,55.00
2019-06-08T12:37:57.952Z,57.90
2019-06-08T12:40:24.622Z,57.40
2019-06-08T12:42:52.095Z,57.60
2019-06-08T12:45:20.500Z,58.00
2019-06-08T12:47:47.962Z,55.30
2019-06-08T12:50:16.488Z,56.10
2019-06-08T12:52:43.739Z,56.20
2019-06-08T12:55:14.329Z,57.10
2019-06-08T12:57:40.379Z,55.80
2019-06-08T13:00:10.251Z,57.60
2019-06-08T13:02:39.575Z,58.30
2019-06-08T13:05:10.609Z,57.60
2019-06-08T13:07:38.578Z,55.60
2019-06-08T13:10:06.442Z,57.50
2019-06-08T13:12:34.867Z,59.00
2019-06-08T13:15:02.523Z,57.30
2019-06-08T13:17:30.006Z,56.00
2019-06-08T13:19:58.207Z,56.00
2019-06-08T13:22:29.013Z,56.90
2019-06-08T13:24:55.209Z,58.10
2019-06-08T13:27:23.232Z,56.30
2019-06-08T13:29:50.624Z,55.30
2019-06-08T13:32:19.017Z,59.00
2019-06-08T13:34:50.220Z,57.10
2019-06-08T13:37:18.971Z,55.20
2019-06-08T13:39:46.480Z,57.60
2019-06-08T13:42:13.792Z,56.40
2019-06-08T13:44:41.815Z,57.70
2019-06-08T13:47:11.138Z,56.80
2019-06-08T13:49:39.095Z,52.90
2019-06-08T13:52:07.903Z,56.40
2019-06-08T13:54:38.016Z,55.40
2019-06-08T13:57:04.828Z,56.10
2019-06-08T13:59:32.523Z,57.10
2019-06-08T14:02:00.007Z,57.70
2019-06-08T14:04:30.116Z,57.60
2019-06-08T14:06:58.703Z,59.10
2019-06-08T14:09:28.543Z,59.60
2019-06-08T14:11:57.778Z,62.50
2019-06-08T14:14:25.870Z,61.40
2019-06-08T14:16:54.275Z,61.40
2019-06-08T14:19:23.252Z,58.50
2019-06-08T14:21:50.991Z,62.30
2019-06-08T14:24:25.633Z,56.40
2019-06-08T14:26:48.659Z,59.90
2019-06-08T14:29:18.427Z,58.30
2019-06-08T14:31:44.799Z,56.90
2019-06-08T14:34:11.867Z,59.00
2019-06-08T14:36:40.983Z,57.70
2019-06-08T14:39:10.692Z,57.50
2019-06-08T14:41:38.223Z,57.10
2019-06-08T14:44:08.310Z,57.50
2019-06-08T14:46:35.042Z,57.80
2019-06-08T14:49:01.883Z,58.90
2019-06-08T14:51:47.920Z,58.90
2019-06-08T14:54:18.492Z,56.80
2019-06-08T14:56:45.232Z,57.30
2019-06-08T14:59:12.198Z,54.50
2019-06-08T15:01:39.540Z,54.90
2019-06-08T15:04:08.938Z,56.10
2019-06-08T15:06:38.070Z,57.20
2019-06-08T15:09:05.619Z,58.30
2019-06-08T15:11:35.247Z,58.90
2019-06-08T15:14:02.631Z,57.30
2019-06-08T15:16:32.799Z,56.80
2019-06-08T15:19:00.462Z,55.80
2019-06-08T15:21:32.650Z,58.40
2019-06-08T15:23:58.091Z,57.50
2019-06-08T15:26:33.640Z,56.80
2019-06-08T15:28:55.287Z,55.60
2019-06-08T15:31:23.046Z,55.60
2019-06-08T15:33:50.604Z,55.60
2019-06-08T15:36:20.291Z,54.80
2019-06-08T15:38:47.980Z,55.60
2019-06-08T15:41:18.130Z,55.60
2019-06-08T15:43:44.835Z,55.80
2019-06-08T15:46:12.422Z,53.40
2019-06-08T15:48:39.412Z,55.20
2019-06-08T15:51:07.873Z,56.10
2019-06-08T15:53:37.871Z,56.80
2019-06-08T15:56:04.983Z,55.80
2019-06-08T15:58:33.919Z,56.70
2019-06-08T16:01:01.880Z,55.80
2019-06-08T16:03:29.407Z,53.60
2019-06-08T16:05:56.453Z,54.60
2019-06-08T16:08:24.375Z,54.20
2019-06-08T16:10:52.653Z,54.20
2019-06-08T16:13:20.432Z,51.00
2019-06-08T16:15:48.084Z,51.40
2019-06-08T16:18:15.146Z,54.20
2019-06-08T16:20:43.096Z,55.40
2019-06-08T16:23:13.579Z,56.00
2019-06-08T16:25:41.149Z,55.40
2019-06-08T16:28:09.232Z,56.50
2019-06-08T16:30:36.632Z,54.80
2019-06-08T16:33:03.863Z,54.90
2019-06-08T16:35:31.527Z,55.20
2019-06-08T16:38:00.108Z,54.10
2019-06-08T16:40:27.616Z,55.00
2019-06-08T16:42:56.356Z,54.20
2019-06-08T16:45:23.908Z,53.80
2019-06-08T16:47:50.736Z,52.60
2019-06-08T16:50:24.576Z,52.70
2019-06-08T16:52:48.023Z,53.30
2019-06-08T16:55:15.703Z,55.50
2019-06-08T16:57:42.939Z,54.40
2019-06-08T17:00:30.380Z,54.80
2019-06-08T17:02:39.968Z,53.00
2019-06-08T17:05:07.758Z,52.80
2019-06-08T17:07:35.959Z,53.80
2019-06-08T17:10:03.604Z,53.60
2019-06-08T17:12:31.027Z,54.40
2019-06-08T17:14:59.506Z,54.50
2019-06-08T17:17:26.455Z,55.70
2019-06-08T17:19:54.160Z,56.50
2019-06-08T17:22:22.323Z,55.60
2019-06-08T17:24:49.209Z,56.10
2019-06-08T17:27:26.440Z,56.60
2019-06-08T17:29:45.355Z,55.80
2019-06-08T17:32:12.292Z,55.00
2019-06-08T17:34:40.260Z,54.40
2019-06-08T17:37:07.854Z,55.20
2019-06-08T17:39:35.841Z,54.60
2019-06-08T17:42:03.512Z,53.00
2019-06-08T17:44:32.179Z,54.80
2019-06-08T17:46:59.468Z,54.90
2019-06-08T17:49:26.419Z,54.10
2019-06-08T17:51:54.267Z,53.90
2019-06-08T17:54:21.890Z,54.10
2019-06-08T17:56:49.292Z,53.00
2019-06-08T17:59:16.813Z,52.90
2019-06-08T18:01:44.099Z,55.70
2019-06-08T18:04:11.351Z,53.40
2019-06-08T18:06:41.396Z,54.20
2019-06-08T18:09:08.105Z,54.20
2019-06-08T18:11:38.447Z,55.00
2019-06-08T18:14:07.453Z,54.30
2019-06-08T18:16:38.961Z,53.60
2019-06-08T18:19:07.941Z,53.10
2019-06-08T18:21:34.735Z,53.80
2019-06-08T18:24:02.983Z,52.90
2019-06-08T18:26:29.804Z,53.50
2019-06-08T18:28:58.136Z,52.80
2019-06-08T18:31:27.484Z,52.70
2019-06-08T18:33:54.816Z,52.60
2019-06-08T18:36:21.740Z,52.90
2019-06-08T18:38:49.015Z,53.20
2019-06-08T18:41:17.693Z,53.40
2019-06-08T18:43:46.101Z,52.40
2019-06-08T18:46:14.011Z,53.30
2019-06-08T18:48:43.182Z,53.50
2019-06-08T18:51:11.668Z,53.60
2019-06-08T18:53:55.916Z,54.20
2019-06-08T18:56:08.289Z,53.80
2019-06-08T18:58:35.788Z,54.30
2019-06-08T19:01:02.759Z,54.30
2019-06-08T19:03:29.722Z,54.80
2019-06-08T19:05:57.639Z,54.60
2019-06-08T19:08:27.669Z,55.20
2019-06-08T19:10:54.099Z,55.70
2019-06-08T19:13:21.216Z,56.00
2019-06-08T19:15:52.856Z,56.40
2019-06-08T19:18:17.855Z,57.10
2019-06-08T19:20:47.738Z,57.60
2019-06-08T19:23:14.012Z,58.10
2019-06-08T19:25:43.204Z,58.40
2019-06-08T19:28:09.860Z,58.00
2019-06-08T19:30:39.479Z,57.90
2019-06-08T19:33:07.424Z,58.60
2019-06-08T19:35:34.907Z,58.50
2019-06-08T19:38:02.285Z,58.50
2019-06-08T19:40:29.715Z,58.80
2019-06-08T19:43:00.039Z,59.10
2019-06-08T19:45:27.551Z,59.20
2019-06-08T19:47:54.375Z,59.40
2019-06-08T19:50:21.342Z,59.40
2019-06-08T19:52:53.062Z,59.40
2019-06-08T19:55:18.090Z,59.60
2019-06-08T19:57:46.084Z,59.50
2019-06-08T20:00:14.704Z,59.70
2019-06-08T20:02:42.702Z,59.50
2019-06-08T20:05:10.558Z,59.40
2019-06-08T20:07:38.504Z,59.30
2019-06-08T20:10:07.688Z,59.40
2019-06-08T20:12:37.015Z,59.30
2019-06-08T20:15:04.530Z,59.70
2019-06-08T20:17:31.505Z,59.50
2019-06-08T20:19:58.722Z,59.50
2019-06-08T20:22:27.642Z,59.50
2019-06-08T20:24:55.882Z,59.60
2019-06-08T20:27:23.299Z,59.90
2019-06-08T20:29:51.356Z,60.10
2019-06-08T20:32:18.652Z,60.60
2019-06-08T20:34:49.286Z,60.50
2019-06-08T20:37:17.420Z,61.00
2019-06-08T20:39:57.299Z,61.10
2019-06-08T20:42:13.128Z,61.20
2019-06-08T20:44:40.071Z,61.20
2019-06-08T20:47:08.433Z,61.20
2019-06-08T20:49:37.260Z,61.50
2019-06-08T20:52:08.343Z,61.50
2019-06-08T20:54:36.800Z,61.50
2019-06-08T20:57:04.043Z,61.40
2019-06-08T20:59:34.281Z,61.50
2019-06-08T21:01:59.967Z,61.40
2019-06-08T21:04:27.743Z,61.40
2019-06-08T21:06:57.211Z,61.80
2019-06-08T21:09:24.271Z,62.00
2019-06-08T21:11:52.908Z,61.80
2019-06-08T21:14:21.075Z,61.80
2019-06-08T21:16:50.452Z,61.90
2019-06-08T21:19:17.996Z,62.20
2019-06-08T21:21:46.072Z,61.90
2019-06-08T21:24:14.412Z,61.80
2019-06-08T21:26:41.276Z,61.70
2019-06-08T21:29:08.363Z,62.10
2019-06-08T21:31:37.718Z,62.00
2019-06-08T21:34:07.274Z,61.90
2019-06-08T21:36:33.942Z,62.00
2019-06-08T21:39:02.587Z,62.20
2019-06-08T21:41:31.313Z,62.50
2019-06-08T21:44:01.905Z,62.20
2019-06-08T21:46:27.648Z,61.80
2019-06-08T21:48:56.118Z,62.00
2019-06-08T21:51:26.166Z,62.10
2019-06-08T21:53:52.623Z,62.00
2019-06-08T21:56:19.460Z,62.10
2019-06-08T21:58:47.285Z,62.00
2019-06-08T22:01:17.883Z,61.50
2019-06-08T22:03:47.165Z,61.40
2019-06-08T22:06:14.629Z,61.30
2019-06-08T22:08:42.186Z,61.40
2019-06-08T22:11:10.023Z,61.30
2019-06-08T22:13:37.526Z,60.80
2019-06-08T22:16:08.192Z,61.30
2019-06-08T22:18:37.843Z,61.00
2019-06-08T22:21:07.845Z,61.10
2019-06-08T22:23:34.569Z,61.10
2019-06-08T22:26:01.576Z,60.90
2019-06-08T22:28:28.759Z,60.90
2019-06-08T22:30:59.632Z,61.00
2019-06-08T22:33:27.956Z,60.70
2019-06-08T22:35:54.359Z,60.90
2019-06-08T22:38:21.696Z,61.10
2019-06-08T22:40:48.739Z,60.50
2019-06-08T22:43:18.374Z,60.20
2019-06-08T22:45:44.532Z,60.30
2019-06-08T22:48:11.864Z,60.40
2019-06-08T22:50:39.771Z,60.80
2019-06-08T22:53:08.049Z,60.60
2019-06-08T22:55:35.266Z,60.90
2019-06-08T22:58:03.411Z,60.90
2019-06-08T23:00:31.463Z,61.30
2019-06-08T23:03:02.771Z,61.50
2019-06-08T23:05:29.402Z,61.80
2019-06-08T23:07:59.733Z,62.00
2019-06-08T23:10:26.551Z,62.10
2019-06-08T23:12:54.334Z,61.80
2019-06-08T23:15:21.623Z,62.20
2019-06-08T23:17:50.480Z,62.00
2019-06-08T23:20:18.708Z,61.80
2019-06-08T23:22:47.526Z,61.70
2019-06-08T23:25:15.079Z,61.70
2019-06-08T23:27:42.511Z,61.60
2019-06-08T23:30:10.539Z,61.50
2019-06-08T23:32:38.652Z,61.70
2019-06-08T23:35:07.907Z,61.60
2019-06-08T23:37:37.273Z,61.70
2019-06-08T23:40:05.576Z,61.30
2019-06-08T23:42:33.332Z,61.30
2019-06-08T23:45:02.199Z,61.50
2019-06-08T23:47:29.287Z,61.80
2019-06-08T23:49:59.228Z,61.90
2019-06-08T23:52:27.305Z,61.70
2019-06-08T23:54:54.775Z,61.50
2019-06-08T23:57:22.196Z,61.80
2019-06-08T23:59:49.341Z,62.80
